Time;durP1;ratioP1;P1;durP2;ratioP2;P2;SDS_P1;SDS_P2;PMS_P1;PMS_P2;Temp;Humidity;BMP_temperature;BMP_pressure;BME280_temperature;BME280_humidity;BME280_pressure;Samples;Min_cycle;Max_cycle;Signal;HPM_P1;HPM_P2
2021/08/24 00:01:33;;;;;;;6.00;5.30;;;;;;;16.39;83.36;100401.84;137326;1201;107568;-73
2021/08/24 00:04:38;;;;;;;5.50;4.90;;;;;;;16.39;83.39;100400.71;137350;1201;96331;-76
2021/08/24 00:07:44;;;;;;;7.00;5.50;;;;;;;16.39;83.46;100403.77;137311;1201;110777;-75
2021/08/24 00:10:52;;;;;;;6.00;5.00;;;;;;;16.35;83.34;100405.27;137337;1201;96303;-74
2021/08/24 00:13:57;;;;;;;6.20;5.20;;;;;;;16.28;83.27;100403.96;137320;1202;97236;-74
2021/08/24 00:17:03;;;;;;;5.80;4.80;;;;;;;16.21;83.43;100399.19;137384;1201;107476;-75
2021/08/24 00:20:10;;;;;;;6.60;5.10;;;;;;;16.22;83.27;100400.02;137336;1201;96347;-74
2021/08/24 00:23:18;;;;;;;7.80;5.40;;;;;;;16.23;83.31;100402.09;137344;1202;110659;-73
2021/08/24 00:26:24;;;;;;;8.00;4.90;;;;;;;16.20;83.10;100403.77;137348;1202;96322;-74
2021/08/24 00:29:29;;;;;;;6.60;4.60;;;;;;;16.17;83.16;100406.89;137324;1202;96348;-75
2021/08/24 00:32:35;;;;;;;6.00;5.00;;;;;;;16.13;83.51;100410.30;137322;1201;108545;-74
2021/08/24 00:35:43;;;;;;;8.30;5.30;;;;;;;16.10;83.23;100408.80;137349;1202;97281;-75
2021/08/24 00:38:49;;;;;;;7.00;5.30;;;;;;;16.09;83.41;100408.02;137253;1201;110535;-73
2021/08/24 00:41:55;;;;;;;12.80;5.50;;;;;;;16.08;83.14;100408.63;137319;1201;97678;-74
2021/08/24 00:45:00;;;;;;;7.30;5.30;;;;;;;16.06;83.08;100413.60;137367;1195;96331;-74
2021/08/24 00:48:08;;;;;;;6.10;5.30;;;;;;;16.07;83.05;100417.05;137326;1201;108508;-74
2021/08/24 00:51:16;;;;;;;7.20;5.20;;;;;;;16.09;83.12;100415.34;137303;1201;97663;-76
2021/08/24 00:54:26;;;;;;;8.00;5.60;;;;;;;16.10;83.16;100417.72;137347;1201;110761;-76
2021/08/24 00:57:32;;;;;;;6.10;4.70;;;;;;;16.08;83.05;100411.31;137349;1202;96412;-74
2021/08/24 01:00:38;;;;;;;4.80;4.20;;;;;;;16.08;82.97;100409.61;137346;1201;97249;-77
2021/08/24 01:03:46;;;;;;;5.60;4.90;;;;;;;16.08;83.04;100416.56;137320;1202;106804;-73
2021/08/24 01:06:57;;;;;;;5.30;4.60;;;;;;;16.07;82.92;100418.20;137356;1195;96424;-74
2021/08/24 01:10:09;;;;;;;5.30;4.60;;;;;;;16.06;82.89;100418.98;137325;1201;110557;-73
2021/08/24 01:13:25;;;;;;;5.00;4.10;;;;;;;16.03;82.97;100426.15;137316;1201;96343;-73
2021/08/24 01:16:38;;;;;;;5.60;4.20;;;;;;;16.02;82.98;100424.06;137330;1201;97691;-73
2021/08/24 01:20:13;;;;;;;5.90;4.80;;;;;;;16.03;83.06;100421.11;137353;1201;109291;-75
2021/08/24 01:23:40;;;;;;;7.10;4.60;;;;;;;16.02;83.13;100421.39;137380;1201;96344;-73
2021/08/24 01:26:52;;;;;;;5.30;4.80;;;;;;;15.98;83.29;100424.09;137265;1202;110785;-74
2021/08/24 01:30:20;;;;;;;5.90;4.40;;;;;;;15.92;83.23;100424.70;137367;1201;96328;-74
2021/08/24 01:33:32;;;;;;;5.50;4.00;;;;;;;15.88;83.43;100427.42;137360;1201;96331;-77
2021/08/24 01:36:45;;;;;;;5.60;4.50;;;;;;;15.86;83.66;100428.78;137308;1201;108712;-73
2021/08/24 01:39:55;;;;;;;5.80;4.90;;;;;;;15.85;83.56;100426.77;137315;1201;97644;-75
2021/08/24 01:43:04;;;;;;;5.40;4.40;;;;;;;15.83;83.57;100428.73;137346;1201;111989;-73
2021/08/24 01:46:17;;;;;;;7.80;4.70;;;;;;;15.80;83.61;100429.11;137368;1202;96303;-73
2021/08/24 01:49:30;;;;;;;8.10;5.00;;;;;;;15.81;83.39;100428.86;137347;1202;97216;-75
2021/08/24 01:52:40;;;;;;;6.20;5.20;;;;;;;15.82;83.38;100429.77;137341;1201;108257;-76
2021/08/24 01:55:51;;;;;;;5.40;4.90;;;;;;;15.82;83.45;100431.58;137338;1201;97694;-76
2021/08/24 01:59:03;;;;;;;6.30;4.90;;;;;;;15.80;83.45;100427.54;137317;1201;110846;-75
2021/08/24 02:02:13;;;;;;;6.00;4.40;;;;;;;15.77;83.38;100430.55;137337;1201;96425;-75
2021/08/24 02:05:23;;;;;;;5.90;4.00;;;;;;;15.77;83.40;100427.90;137328;1201;96249;-75
2021/08/24 02:08:35;;;;;;;10.80;5.30;;;;;;;15.78;83.32;100432.80;137339;1195;108519;-74
2021/08/24 02:11:43;;;;;;;5.80;4.60;;;;;;;15.73;83.48;100433.70;137331;1202;97650;-73
2021/08/24 02:14:48;;;;;;;6.10;4.80;;;;;;;15.71;83.27;100439.23;137344;1201;110863;-73
2021/08/24 02:17:57;;;;;;;8.10;4.30;;;;;;;15.72;83.33;100443.27;137322;1201;97261;-74
2021/08/24 02:21:08;;;;;;;7.00;5.00;;;;;;;15.71;83.08;100448.60;137364;1202;97222;-74
2021/08/24 02:24:19;;;;;;;6.20;4.80;;;;;;;15.72;83.29;100447.02;137369;1201;108656;-72
2021/08/24 02:27:31;;;;;;;7.40;5.00;;;;;;;15.71;83.02;100443.59;137380;1202;96338;-73
2021/08/24 02:30:41;;;;;;;6.30;4.70;;;;;;;15.68;83.20;100443.92;137328;1202;109758;-74
2021/08/24 02:33:54;;;;;;;5.50;3.90;;;;;;;15.65;83.15;100442.59;137344;1202;97689;-75
2021/08/24 02:37:08;;;;;;;7.80;4.40;;;;;;;15.66;83.27;100442.76;137394;1201;97675;-75
2021/08/24 02:40:21;;;;;;;6.90;4.10;;;;;;;15.63;83.27;100437.73;137483;1199;107551;-75
2021/08/24 02:43:34;;;;;;;6.20;4.50;;;;;;;15.61;83.25;100434.20;137424;1201;96358;-70
2021/08/24 02:46:42;;;;;;;8.50;4.50;;;;;;;15.60;83.30;100430.41;137121;1201;109941;-68
2021/08/24 02:49:48;;;;;;;6.00;4.20;;;;;;;15.57;83.35;100427.80;137173;1202;96361;-70
2021/08/24 02:52:55;;;;;;;7.10;4.30;;;;;;;15.54;83.11;100429.87;137227;1201;97252;-69
2021/08/24 02:56:00;;;;;;;6.20;4.60;;;;;;;15.52;83.19;100429.83;137220;1201;109627;-70
2021/08/24 02:59:06;;;;;;;5.40;4.20;;;;;;;15.51;83.33;100429.84;137264;1201;97272;-69
2021/08/24 03:02:13;;;;;;;6.00;4.50;;;;;;;15.47;83.44;100437.86;137238;1203;109488;-70
2021/08/24 03:05:18;;;;;;;5.20;3.80;;;;;;;15.44;83.47;100437.46;137226;1202;96355;-70
2021/08/24 03:08:24;;;;;;;5.70;4.30;;;;;;;15.46;83.56;100440.27;137000;1201;96318;-70
2021/08/24 03:11:34;;;;;;;6.00;4.50;;;;;;;15.49;83.16;100438.50;137072;1201;106824;-70
2021/08/24 03:14:49;;;;;;;5.00;4.40;;;;;;;15.49;83.20;100440.20;137461;1195;96353;-70
2021/08/24 03:17:59;;;;;;;5.40;4.00;;;;;;;15.45;83.28;100442.66;137169;1202;109656;-71
2021/08/24 03:21:10;;;;;;;5.10;3.80;;;;;;;15.40;83.46;100448.20;137230;1202;97640;-73
2021/08/24 03:24:18;;;;;;;6.10;3.70;;;;;;;15.37;83.54;100448.10;137408;1201;97646;-72
2021/08/24 03:27:25;;;;;;;5.90;4.10;;;;;;;15.33;83.46;100448.06;137197;1202;107093;-71
2021/08/24 03:30:36;;;;;;;6.00;4.40;;;;;;;15.34;83.64;100447.63;137338;1202;97261;-72
2021/08/24 03:33:42;;;;;;;5.50;4.20;;;;;;;15.30;83.43;100450.70;137388;1201;110826;-71
2021/08/24 03:36:48;;;;;;;6.80;3.80;;;;;;;15.26;83.48;100451.76;137189;1202;97261;-72
2021/08/24 03:39:53;;;;;;;8.10;4.60;;;;;;;15.21;83.63;100455.74;137356;1202;96342;-72
2021/08/24 03:42:59;;;;;;;6.60;3.90;;;;;;;15.21;83.80;100453.59;137312;1202;108642;-72
2021/08/24 03:46:05;;;;;;;9.70;5.60;;;;;;;15.20;83.80;100454.95;137332;1201;96304;-71
2021/08/24 03:49:11;;;;;;;4.90;3.80;;;;;;;15.12;83.69;100463.77;137350;1196;110804;-70
2021/08/24 03:52:16;;;;;;;6.60;4.00;;;;;;;15.10;84.29;100469.56;137181;1201;96415;-71
2021/08/24 03:55:22;;;;;;;5.50;3.90;;;;;;;15.10;83.89;100470.80;137254;1202;96462;-71
2021/08/24 03:58:27;;;;;;;5.50;3.90;;;;;;;15.12;84.06;100475.97;137285;1202;108444;-71
2021/08/24 04:01:33;;;;;;;5.00;4.00;;;;;;;15.12;83.93;100476.46;137208;1202;97249;-72
2021/08/24 04:04:38;;;;;;;6.30;4.00;;;;;;;15.12;84.08;100484.30;137289;1202;111040;-71
2021/08/24 04:07:46;;;;;;;4.90;3.50;;;;;;;15.14;83.92;100485.20;137300;1201;97288;-72
2021/08/24 04:10:52;;;;;;;5.10;3.90;;;;;;;15.19;83.88;100487.71;137322;1201;97230;-73
2021/08/24 04:13:57;;;;;;;5.80;4.00;;;;;;;15.20;83.73;100489.02;137361;1202;108507;-72
2021/08/24 04:17:03;;;;;;;5.90;4.10;;;;;;;15.18;83.84;100491.15;137213;1202;96339;-69
2021/08/24 04:20:13;;;;;;;5.10;4.20;;;;;;;15.18;83.79;100490.61;137284;1202;110847;-71
2021/08/24 04:23:23;;;;;;;6.80;3.70;;;;;;;15.16;83.82;100489.98;137248;1201;96378;-71
2021/08/24 04:26:28;;;;;;;5.20;4.00;;;;;;;15.20;83.71;100487.24;137363;1201;96349;-72
2021/08/24 04:29:34;;;;;;;5.70;4.50;;;;;;;15.21;83.81;100488.71;137327;1202;108093;-72
2021/08/24 04:32:46;;;;;;;7.50;4.80;;;;;;;15.20;83.88;100488.15;137358;1202;96689;-72
2021/08/24 04:35:54;;;;;;;6.00;4.10;;;;;;;15.17;83.96;100493.61;137343;1202;110841;-73
2021/08/24 04:38:59;;;;;;;5.90;4.00;;;;;;;15.17;83.92;100496.20;137366;1201;96769;-71
2021/08/24 04:42:05;;;;;;;5.20;4.60;;;;;;;15.18;83.88;100494.94;137373;1201;96316;-72
2021/08/24 04:45:12;;;;;;;5.30;4.60;;;;;;;15.19;84.25;100491.08;137334;1202;108630;-72
2021/08/24 04:48:18;;;;;;;5.40;4.70;;;;;;;15.19;83.84;100494.63;137330;1202;97641;-73
2021/08/24 04:51:23;;;;;;;11.30;4.60;;;;;;;15.17;84.14;100499.15;137538;1195;110143;-72
2021/08/24 04:54:33;;;;;;;6.40;4.00;;;;;;;15.18;84.05;100505.45;137327;1202;96790;-73
2021/08/24 04:57:39;;;;;;;7.30;4.90;;;;;;;15.20;84.40;100505.02;137357;1202;97387;-71
2021/08/24 05:00:44;;;;;;;6.60;5.30;;;;;;;15.23;84.16;100506.34;137297;1202;108537;-73
2021/08/24 05:03:49;;;;;;;6.60;5.00;;;;;;;15.24;84.29;100506.30;137342;1202;97674;-73
2021/08/24 05:06:55;;;;;;;5.20;4.50;;;;;;;15.19;84.00;100505.05;137362;1202;110943;-70
2021/08/24 05:10:01;;;;;;;5.10;3.80;;;;;;;15.21;84.00;100501.77;137226;1202;96416;-71
2021/08/24 05:13:07;;;;;;;6.00;4.20;;;;;;;15.21;84.02;100509.47;137185;1202;96437;-71
2021/08/24 05:16:13;;;;;;;4.70;4.10;;;;;;;15.20;83.70;100511.49;137165;1202;107863;-71
2021/08/24 05:19:18;;;;;;;5.60;3.90;;;;;;;15.22;83.73;100512.42;137436;1202;97279;-74
2021/08/24 05:22:23;;;;;;;5.70;4.20;;;;;;;15.22;83.61;100514.85;137432;1202;110826;-74
2021/08/24 05:25:30;;;;;;;5.20;3.20;;;;;;;15.22;83.59;100519.55;137374;1202;96384;-73
2021/08/24 05:28:36;;;;;;;4.60;3.50;;;;;;;15.22;83.48;100517.91;137514;1202;96401;-77
2021/08/24 05:31:41;;;;;;;5.50;3.50;;;;;;;15.24;83.36;100517.52;137419;1202;108491;-84
2021/08/24 05:34:46;;;;;;;4.70;3.50;;;;;;;15.24;83.21;100522.70;137580;1202;96419;-75
2021/08/24 05:37:52;;;;;;;6.60;3.60;;;;;;;15.20;83.25;100530.38;137590;1201;110775;-72
2021/08/24 05:40:57;;;;;;;5.00;3.40;;;;;;;15.18;83.15;100533.67;137542;1202;96402;-73
2021/08/24 05:44:03;;;;;;;5.90;3.60;;;;;;;15.16;83.00;100536.46;137606;1201;97650;-75
2021/08/24 05:47:09;;;;;;;6.00;3.70;;;;;;;15.12;82.89;100543.33;137699;1201;107586;-74
2021/08/24 05:50:15;;;;;;;4.30;3.20;;;;;;;15.10;82.87;100542.67;137469;1200;97102;-74
2021/08/24 05:53:20;;;;;;;4.40;3.30;;;;;;;15.06;82.95;100548.15;137395;1202;110857;-74
2021/08/24 05:56:28;;;;;;;4.40;2.70;;;;;;;15.01;82.94;100552.85;137452;1195;96329;-75
2021/08/24 05:59:33;;;;;;;4.50;3.30;;;;;;;14.93;83.03;100556.54;137368;1201;97268;-73
2021/08/24 06:02:40;;;;;;;5.40;3.30;;;;;;;14.93;83.17;100560.17;137414;1194;108493;-75
2021/08/24 06:05:45;;;;;;;5.20;3.50;;;;;;;14.97;82.89;100561.29;137471;1201;96438;-75
2021/08/24 06:08:51;;;;;;;4.10;3.30;;;;;;;15.00;83.00;100565.86;137376;1201;110834;-75
2021/08/24 06:11:57;;;;;;;4.70;3.10;;;;;;;15.05;82.91;100572.77;137348;1201;96691;-72
2021/08/24 06:15:04;;;;;;;6.70;3.70;;;;;;;15.04;82.71;100569.46;137487;1201;96445;-74
2021/08/24 06:18:10;;;;;;;4.80;3.30;;;;;;;15.06;82.98;100575.73;137473;1201;108482;-74
2021/08/24 06:21:16;;;;;;;4.20;3.10;;;;;;;15.05;82.78;100576.70;137407;1201;97230;-74
2021/08/24 06:24:21;;;;;;;5.30;3.10;;;;;;;14.95;82.74;100577.83;137404;1201;110854;-75
2021/08/24 06:27:28;;;;;;;4.60;2.50;;;;;;;14.88;82.92;100581.79;137359;1201;96450;-73
2021/08/24 06:30:34;;;;;;;3.90;2.70;;;;;;;14.89;82.77;100581.13;137372;1201;97660;-73
2021/08/24 06:33:41;;;;;;;5.10;3.10;;;;;;;14.89;82.65;100581.84;137458;1201;108047;-75
2021/08/24 06:36:47;;;;;;;6.20;3.00;;;;;;;14.84;82.72;100587.61;137370;1201;96332;-75
2021/08/24 06:39:52;;;;;;;5.00;2.50;;;;;;;14.84;83.03;100589.23;137480;1195;110796;-72
2021/08/24 06:42:58;;;;;;;4.20;2.50;;;;;;;14.90;82.88;100590.01;137371;1201;96455;-74
2021/08/24 06:46:05;;;;;;;3.90;2.40;;;;;;;14.94;82.41;100593.05;137392;1201;97244;-73
2021/08/24 06:49:10;;;;;;;3.60;2.60;;;;;;;14.86;82.33;100593.38;137426;1201;108409;-75
2021/08/24 06:52:16;;;;;;;5.90;2.50;;;;;;;14.78;82.58;100598.87;137399;1201;97856;-75
2021/08/24 06:55:25;;;;;;;6.60;2.90;;;;;;;14.72;82.38;100600.61;137345;1201;110951;-75
2021/08/24 06:58:30;;;;;;;6.50;2.70;;;;;;;14.65;82.38;100603.11;137360;1203;96321;-73
2021/08/24 07:01:36;;;;;;;4.20;2.60;;;;;;;14.61;82.34;100605.70;137431;1195;96781;-73
2021/08/24 07:04:42;;;;;;;4.80;3.20;;;;;;;14.61;82.58;100609.27;137374;1202;108437;-74
2021/08/24 07:07:47;;;;;;;5.40;2.90;;;;;;;14.65;82.42;100607.88;137378;1203;96323;-74
2021/08/24 07:10:53;;;;;;;6.30;2.60;;;;;;;14.61;82.42;100611.23;137310;1202;110930;-74
2021/08/24 07:14:01;;;;;;;6.50;2.40;;;;;;;14.58;82.31;100615.00;137481;1201;96352;-74
2021/08/24 07:17:06;;;;;;;7.60;2.60;;;;;;;14.51;82.25;100613.38;137444;1201;96330;-76
2021/08/24 07:20:18;;;;;;;5.10;2.60;;;;;;;14.48;82.23;100618.72;137356;1195;108528;-73
2021/08/24 07:23:24;;;;;;;4.30;2.70;;;;;;;14.42;82.36;100618.41;137375;1201;97678;-73
2021/08/24 07:26:30;;;;;;;4.20;2.60;;;;;;;14.43;82.24;100619.35;137418;1203;110367;-74
2021/08/24 07:29:35;;;;;;;4.90;2.30;;;;;;;14.37;82.03;100626.30;137505;1203;96663;-75
2021/08/24 07:32:41;;;;;;;4.30;2.90;;;;;;;14.33;82.12;100623.86;137377;1202;96724;-76
2021/08/24 07:35:48;;;;;;;3.60;2.30;;;;;;;14.37;82.37;100620.83;137435;1196;108566;-73
2021/08/24 07:38:53;;;;;;;4.10;2.40;;;;;;;14.43;82.24;100626.55;137403;1202;97660;-75
2021/08/24 07:41:58;;;;;;;3.70;2.40;;;;;;;14.43;81.93;100627.98;137355;1202;110764;-74
2021/08/24 07:45:04;;;;;;;7.30;2.40;;;;;;;14.34;81.88;100622.84;137400;1202;96434;-74
2021/08/24 07:48:10;;;;;;;5.00;2.40;;;;;;;14.35;82.08;100627.25;137443;1201;96325;-74
2021/08/24 07:51:19;;;;;;;3.70;2.20;;;;;;;14.39;82.11;100625.90;137437;1201;108542;-73
2021/08/24 07:54:25;;;;;;;3.80;2.30;;;;;;;14.42;82.04;100627.06;137433;1203;96434;-74
2021/08/24 07:57:31;;;;;;;9.70;2.60;;;;;;;14.48;81.89;100630.48;137353;1201;111001;-74
2021/08/24 08:00:37;;;;;;;3.40;2.30;;;;;;;14.62;81.85;100631.84;137436;1203;97653;-74
2021/08/24 08:03:42;;;;;;;3.20;2.00;;;;;;;14.75;81.66;100639.17;137397;1199;97255;-74
2021/08/24 08:06:47;;;;;;;4.40;2.20;;;;;;;14.93;81.73;100636.48;137413;1194;108433;-73
2021/08/24 08:09:53;;;;;;;3.20;2.00;;;;;;;15.22;81.68;100638.47;137426;1201;96775;-73
2021/08/24 08:12:59;;;;;;;3.10;2.20;;;;;;;15.42;81.04;100642.02;137392;1201;111012;-74
2021/08/24 08:16:05;;;;;;;4.60;2.10;;;;;;;15.52;81.08;100641.42;137388;1202;97675;-72
2021/08/24 08:19:10;;;;;;;5.10;1.90;;;;;;;15.58;80.47;100646.92;137409;1203;96355;-73
2021/08/24 08:22:16;;;;;;;5.60;2.10;;;;;;;15.60;80.59;100644.64;137364;1202;108446;-73
2021/08/24 08:25:22;;;;;;;3.70;1.90;;;;;;;15.68;80.24;100649.31;137464;1194;97258;-73
2021/08/24 08:28:27;;;;;;;4.40;2.10;;;;;;;15.72;80.26;100647.98;137414;1202;110890;-74
2021/08/24 08:31:34;;;;;;;5.50;2.40;;;;;;;15.76;80.71;100652.89;137350;1202;97641;-72
2021/08/24 08:34:42;;;;;;;3.10;1.90;;;;;;;15.75;79.73;100656.10;137413;1201;96707;-73
2021/08/24 08:37:48;;;;;;;5.20;2.30;;;;;;;15.67;78.96;100662.43;137440;1201;108673;-73
2021/08/24 08:41:03;;;;;;;5.10;2.20;;;;;;;15.64;79.38;100665.91;137440;1202;96434;-75
2021/08/24 08:44:18;;;;;;;4.60;2.20;;;;;;;15.70;79.68;100670.19;137303;1201;110979;-74
2021/08/24 08:47:45;;;;;;;3.40;2.10;;;;;;;15.83;80.05;100680.20;137370;1201;96824;-74
2021/08/24 08:50:55;;;;;;;5.10;1.80;;;;;;;15.95;79.60;100676.55;137407;1201;97654;-70
2021/08/24 08:54:08;;;;;;;3.10;1.80;;;;;;;16.00;78.72;100675.38;137365;1195;108710;-73
2021/08/24 08:57:19;;;;;;;2.50;1.70;;;;;;;16.07;78.59;100675.34;137381;1203;97660;-73
2021/08/24 09:00:36;;;;;;;3.30;1.80;;;;;;;16.05;77.96;100679.29;137415;1201;110901;-75
2021/08/24 09:03:55;;;;;;;5.70;2.10;;;;;;;16.10;78.29;100679.29;137439;1201;96428;-75
2021/08/24 09:07:06;;;;;;;2.30;1.70;;;;;;;16.16;78.04;100675.38;137452;1201;96386;-73
2021/08/24 09:10:15;;;;;;;2.40;1.60;;;;;;;16.13;76.90;100679.88;137361;1201;108550;-74
2021/08/24 09:13:33;;;;;;;2.80;1.70;;;;;;;16.04;77.30;100681.75;137393;1201;96360;-74
2021/08/24 09:16:47;;;;;;;3.30;1.60;;;;;;;16.03;77.58;100683.35;137411;1201;110765;-72
2021/08/24 09:19:57;;;;;;;3.00;1.60;;;;;;;16.02;76.09;100686.61;137313;1201;97680;-72
2021/08/24 09:23:03;;;;;;;3.20;1.70;;;;;;;16.03;77.29;100689.05;137416;1194;96341;-73
2021/08/24 09:26:29;;;;;;;2.10;1.30;;;;;;;16.14;77.17;100691.33;137382;1201;108706;-73
2021/08/24 09:29:39;;;;;;;4.30;1.20;;;;;;;16.32;76.29;100691.96;137434;1201;96325;-72
2021/08/24 09:32:47;;;;;;;3.60;1.60;;;;;;;16.30;74.59;100694.52;137389;1201;110643;-74
2021/08/24 09:35:52;;;;;;;1.90;1.30;;;;;;;16.30;75.76;100694.56;137430;1201;96434;-73
2021/08/24 09:39:00;;;;;;;3.20;1.30;;;;;;;16.43;76.22;100696.92;137459;1195;97265;-74
2021/08/24 09:42:10;;;;;;;2.40;1.10;;;;;;;16.47;75.80;100695.20;137417;1201;108391;-72
2021/08/24 09:45:30;;;;;;;2.40;1.50;;;;;;;16.48;74.64;100700.38;137418;1201;97237;-75
2021/08/24 09:48:51;;;;;;;3.00;1.60;;;;;;;16.41;74.88;100703.70;137452;1201;111160;-74
2021/08/24 09:52:00;;;;;;;1.90;1.40;;;;;;;16.51;75.26;100705.58;137433;1201;96399;-74
2021/08/24 09:55:14;;;;;;;3.20;1.40;;;;;;;16.60;75.15;100704.16;137407;1195;96407;-73
2021/08/24 09:58:33;;;;;;;2.60;1.40;;;;;;;16.66;73.39;100709.64;137448;1201;108288;-73
2021/08/24 10:01:51;;;;;;;3.10;1.30;;;;;;;16.70;73.64;100710.79;137422;1201;97637;-73
2021/08/24 10:04:56;;;;;;;1.70;1.10;;;;;;;16.70;73.30;100710.48;137450;1201;109896;-73
2021/08/24 10:08:29;;;;;;;2.50;1.20;;;;;;;16.82;74.22;100708.31;137377;1201;96343;-74
2021/08/24 10:11:35;;;;;;;1.80;1.00;;;;;;;16.86;71.64;100712.61;137392;1201;97725;-74
2021/08/24 10:14:41;;;;;;;3.80;1.30;;;;;;;16.81;71.76;100713.64;137302;1201;107965;-74
2021/08/24 10:17:46;;;;;;;2.00;1.10;;;;;;;16.81;70.87;100718.84;137420;1201;96402;-75
2021/08/24 10:20:56;;;;;;;2.20;1.10;;;;;;;16.91;72.51;100713.77;137539;1201;109659;-74
2021/08/24 10:24:03;;;;;;;3.50;1.30;;;;;;;16.95;70.10;100719.97;137429;1201;97641;-73
2021/08/24 10:27:22;;;;;;;2.30;1.10;;;;;;;16.82;70.37;100718.09;137467;1201;97839;-74
2021/08/24 10:30:43;;;;;;;1.70;1.10;;;;;;;16.83;70.56;100717.98;137510;1200;108212;-74
2021/08/24 10:33:56;;;;;;;2.30;1.20;;;;;;;16.83;69.83;100717.88;137456;1194;96344;-73
2021/08/24 10:37:32;;;;;;;1.90;1.10;;;;;;;16.90;70.38;100718.20;137438;1201;110904;-74
2021/08/24 10:40:45;;;;;;;2.30;1.10;;;;;;;17.03;70.88;100718.27;137398;1201;97654;-75
2021/08/24 10:43:56;;;;;;;3.10;1.00;;;;;;;17.16;71.52;100718.92;137494;1201;96308;-72
2021/08/24 10:47:17;;;;;;;2.30;1.00;;;;;;;17.31;70.82;100720.25;137529;1201;108642;-73
2021/08/24 10:50:25;;;;;;;2.00;1.10;;;;;;;17.39;68.77;100722.27;137467;1193;96419;-74
2021/08/24 10:53:44;;;;;;;2.10;1.10;;;;;;;17.40;69.93;100722.05;137469;1201;109819;-74
2021/08/24 10:57:00;;;;;;;1.60;1.20;;;;;;;17.49;69.67;100722.62;137645;1201;97659;-74
2021/08/24 11:00:17;;;;;;;2.60;1.40;;;;;;;17.51;69.50;100722.89;137447;1201;97290;-73
2021/08/24 11:03:47;;;;;;;2.50;1.10;;;;;;;17.50;68.00;100729.55;137432;1194;108628;-72
2021/08/24 11:07:07;;;;;;;1.50;1.10;;;;;;;17.41;67.40;100727.49;137417;1194;97690;-73
2021/08/24 11:10:23;;;;;;;3.00;1.20;;;;;;;17.48;68.63;100730.63;137372;1201;111422;-73
2021/08/24 11:13:41;;;;;;;2.30;1.10;;;;;;;17.54;67.27;100732.84;137319;1201;96336;-73
2021/08/24 11:16:59;;;;;;;3.20;1.10;;;;;;;17.52;65.81;100731.94;137413;1201;96734;-73
2021/08/24 11:20:26;;;;;;;1.70;1.10;;;;;;;17.58;68.52;100736.27;137357;1194;108148;-74
2021/08/24 11:23:54;;;;;;;3.30;1.20;;;;;;;17.80;68.47;100736.27;137335;1201;96392;-75
2021/08/24 11:27:09;;;;;;;3.10;1.20;;;;;;;17.92;66.98;100742.79;137382;1201;110820;-75
2021/08/24 11:30:23;;;;;;;2.10;1.30;;;;;;;18.03;68.18;100744.37;137436;1201;96737;-74
2021/08/24 11:33:35;;;;;;;2.60;1.30;;;;;;;18.22;67.30;100746.79;137484;1201;97653;-75
2021/08/24 11:36:44;;;;;;;1.90;1.40;;;;;;;18.32;66.76;100753.20;137322;1201;108547;-71
2021/08/24 11:39:54;;;;;;;2.20;1.20;;;;;;;18.30;66.38;100758.42;137382;1201;96409;-73
2021/08/24 11:43:03;;;;;;;1.80;1.20;;;;;;;18.23;65.66;100757.81;137370;1193;110500;-73
2021/08/24 11:46:19;;;;;;;2.70;1.10;;;;;;;18.18;65.09;100763.73;137378;1201;97756;-73
2021/08/24 11:49:29;;;;;;;1.90;1.30;;;;;;;18.22;65.17;100765.20;137478;1195;97653;-73
2021/08/24 11:52:43;;;;;;;3.80;1.10;;;;;;;18.27;65.17;100766.50;137526;1201;108410;-74
2021/08/24 11:55:56;;;;;;;3.40;1.30;;;;;;;18.37;65.81;100763.33;137588;1201;97282;-73
2021/08/24 11:59:08;;;;;;;1.90;1.10;;;;;;;18.53;65.89;100770.14;137383;1201;110664;-73
2021/08/24 12:02:18;;;;;;;3.10;1.00;;;;;;;18.67;65.84;100768.48;137421;1194;97666;-74
2021/08/24 12:05:28;;;;;;;2.00;1.00;;;;;;;18.80;66.20;100770.35;137504;1201;96362;-72
2021/08/24 12:08:41;;;;;;;4.20;1.10;;;;;;;18.93;64.58;100772.02;137450;1201;108368;-74
2021/08/24 12:11:50;;;;;;;2.40;1.20;;;;;;;18.82;63.41;100770.48;137375;1201;96383;-74
2021/08/24 12:14:59;;;;;;;3.40;1.10;;;;;;;18.82;64.07;100768.42;137406;1201;111353;-73
2021/08/24 12:18:11;;;;;;;2.50;1.20;;;;;;;18.83;64.18;100770.65;137494;1201;96323;-73
2021/08/24 12:21:32;;;;;;;2.70;1.30;;;;;;;18.78;64.49;100771.84;137473;1194;97682;-74
2021/08/24 12:25:07;;;;;;;2.90;1.10;;;;;;;18.84;64.19;100777.82;137400;1195;108525;-74
2021/08/24 12:28:42;;;;;;;2.60;1.30;;;;;;;18.78;63.02;100779.06;137524;1201;96354;-72
2021/08/24 12:31:49;;;;;;;2.60;1.10;;;;;;;18.68;63.07;100783.63;137432;1201;111205;-73
2021/08/24 12:35:06;;;;;;;3.40;1.20;;;;;;;18.52;62.67;100778.52;137495;1195;96374;-73
2021/08/24 12:38:42;;;;;;;3.30;1.10;;;;;;;18.46;59.92;100785.00;137430;1201;97224;-72
2021/08/24 12:41:48;;;;;;;3.00;1.00;;;;;;;18.41;60.74;100779.41;137510;1201;109192;-74
2021/08/24 12:45:16;;;;;;;3.80;1.40;;;;;;;18.46;61.95;100782.20;137436;1200;97662;-73
2021/08/24 12:48:23;;;;;;;2.20;1.20;;;;;;;18.55;61.63;100782.67;137460;1201;110799;-74
2021/08/24 12:51:32;;;;;;;3.00;1.40;;;;;;;18.46;61.32;100781.33;137460;1201;97663;-76
2021/08/24 12:54:49;;;;;;;2.30;1.20;;;;;;;18.43;61.75;100782.39;137432;1201;96418;-74
2021/08/24 12:58:03;;;;;;;3.50;1.50;;;;;;;18.54;62.59;100785.15;137475;1201;108362;-73
2021/08/24 13:01:17;;;;;;;2.50;1.10;;;;;;;18.62;61.76;100787.86;137488;1201;96326;-74
2021/08/24 13:04:24;;;;;;;2.20;1.10;;;;;;;18.60;61.39;100789.95;137404;1201;110825;-72
2021/08/24 13:07:42;;;;;;;1.80;1.20;;;;;;;18.62;62.26;100790.09;137472;1200;96403;-75
2021/08/24 13:10:49;;;;;;;2.10;1.00;;;;;;;18.71;62.29;100793.60;137440;1201;97643;-74
2021/08/24 13:13:57;;;;;;;2.00;1.20;;;;;;;18.66;58.70;100788.10;137646;1201;108604;-73
2021/08/24 13:17:03;;;;;;;3.10;1.40;;;;;;;18.46;58.87;100788.94;137501;1193;97651;-73
2021/08/24 13:20:14;;;;;;;3.50;1.30;;;;;;;18.39;58.78;100790.91;137473;1193;110782;-73
2021/08/24 13:23:30;;;;;;;2.80;1.40;;;;;;;18.40;59.15;100793.87;137380;1193;97256;-74
2021/08/24 13:26:52;;;;;;;1.70;1.10;;;;;;;18.39;59.92;100792.39;137553;1201;96403;-73
2021/08/24 13:29:59;;;;;;;2.50;1.40;;;;;;;18.44;60.53;100792.66;137415;1201;107626;-73
2021/08/24 13:33:11;;;;;;;2.40;1.20;;;;;;;18.52;59.48;100792.32;137487;1201;96322;-73
2021/08/24 13:36:22;;;;;;;;;;;;;;;18.48;59.03;100792.65;137556;1201;110486;-73
2021/08/24 13:39:27;;;;;;;3.40;1.20;;;;;;;18.54;59.86;100792.91;137567;1201;97247;-73
2021/08/24 13:42:34;;;;;;;2.40;1.40;;;;;;;18.54;58.00;100794.67;137458;1201;96300;-72
2021/08/24 13:45:46;;;;;;;2.40;1.20;;;;;;;18.44;58.20;100792.66;137546;1201;108453;-72
2021/08/24 13:48:51;;;;;;;2.50;1.50;;;;;;;18.50;58.11;100798.49;137458;1201;96332;-72
2021/08/24 13:51:59;;;;;;;2.90;1.30;;;;;;;18.50;57.91;100800.74;137435;1201;110641;-73
2021/08/24 13:55:08;;;;;;;3.00;1.20;;;;;;;18.45;56.95;100800.19;137479;1193;97268;-73
2021/08/24 13:58:27;;;;;;;2.30;1.70;;;;;;;18.42;57.54;100796.54;137499;1193;96470;-72
2021/08/24 14:01:35;;;;;;;2.50;1.60;;;;;;;18.42;56.85;100795.39;137540;1200;108433;-71
2021/08/24 14:04:44;;;;;;;2.70;1.70;;;;;;;18.42;57.11;100794.71;137583;1201;97296;-72
2021/08/24 14:07:56;;;;;;;2.90;1.70;;;;;;;18.42;57.19;100795.05;137366;1195;110685;-73
2021/08/24 14:11:04;;;;;;;6.40;2.20;;;;;;;18.42;56.07;100793.30;137505;1201;96336;-73
2021/08/24 14:14:09;;;;;;;17.10;7.00;;;;;;;18.33;56.42;100791.84;137470;1201;97683;-72
2021/08/24 14:17:27;;;;;;;5.50;3.00;;;;;;;18.28;56.63;100799.02;137478;1201;108463;-74
2021/08/24 14:20:39;;;;;;;2.60;1.80;;;;;;;18.22;56.16;100797.54;137472;1193;96337;-73
2021/08/24 14:23:50;;;;;;;3.60;2.20;;;;;;;18.19;55.73;100794.73;137498;1201;109458;-74
2021/08/24 14:26:56;;;;;;;4.60;2.50;;;;;;;18.26;56.71;100791.34;137510;1201;97239;-74
2021/08/24 14:30:04;;;;;;;4.10;2.60;;;;;;;18.32;56.71;100798.14;137581;1200;97280;-71